sensor_id;sensor_type;location;lat;lon;timestamp;temperature;humidity
64499;SHT31;51087;55.718;21.122;2022-11-15T00:00:28;7.49;99.99
64499;SHT31;51087;55.718;21.122;2022-11-15T00:02:54;7.51;99.99
64499;SHT31;51087;55.718;21.122;2022-11-15T00:05:20;7.49;99.99
64499;SHT31;51087;55.718;21.122;2022-11-15T00:07:45;7.51;99.99
64499;SHT31;51087;55.718;21.122;2022-11-15T00:10:11;7.55;99.95
64499;SHT31;51087;55.718;21.122;2022-11-15T00:12:37;7.49;99.99
64499;SHT31;51087;55.718;21.122;2022-11-15T00:15:02;7.48;99.99
64499;SHT31;51087;55.718;21.122;2022-11-15T00:17:28;7.48;99.99
64499;SHT31;51087;55.718;21.122;2022-11-15T00:19:53;7.49;99.99
64499;SHT31;51087;55.718;21.122;2022-11-15T00:22:18;7.51;99.99
64499;SHT31;51087;55.718;21.122;2022-11-15T00:24:44;7.55;99.99
64499;SHT31;51087;55.718;21.122;2022-11-15T00:27:09;7.49;99.96
64499;SHT31;51087;55.718;21.122;2022-11-15T00:29:35;7.49;99.99
64499;SHT31;51087;55.718;21.122;2022-11-15T00:32:02;7.49;99.99
64499;SHT31;51087;55.718;21.122;2022-11-15T00:34:27;7.54;99.99
64499;SHT31;51087;55.718;21.122;2022-11-15T00:36:53;7.52;99.99
64499;SHT31;51087;55.718;21.122;2022-11-15T00:39:18;7.51;99.94
64499;SHT31;51087;55.718;21.122;2022-11-15T00:41:44;7.54;99.99
64499;SHT31;51087;55.718;21.122;2022-11-15T00:44:09;7.49;99.99
64499;SHT31;51087;55.718;21.122;2022-11-15T00:46:34;7.52;99.92
64499;SHT31;51087;55.718;21.122;2022-11-15T00:49:00;7.49;99.93
64499;SHT31;51087;55.718;21.122;2022-11-15T00:51:25;7.49;99.99
64499;SHT31;51087;55.718;21.122;2022-11-15T00:53:51;7.52;99.99
64499;SHT31;51087;55.718;21.122;2022-11-15T00:56:16;7.54;99.84
64499;SHT31;51087;55.718;21.122;2022-11-15T00:58:41;7.56;99.86
64499;SHT31;51087;55.718;21.122;2022-11-15T01:01:13;7.52;99.99
64499;SHT31;51087;55.718;21.122;2022-11-15T01:03:40;7.54;99.99
64499;SHT31;51087;55.718;21.122;2022-11-15T01:06:07;7.52;99.99
64499;SHT31;51087;55.718;21.122;2022-11-15T01:08:33;7.51;99.99
64499;SHT31;51087;55.718;21.122;2022-11-15T01:11:03;7.54;99.90
64499;SHT31;51087;55.718;21.122;2022-11-15T01:13:31;7.54;99.80
64499;SHT31;51087;55.718;21.122;2022-11-15T01:15:57;7.52;99.74
64499;SHT31;51087;55.718;21.122;2022-11-15T01:18:22;7.52;99.52
64499;SHT31;51087;55.718;21.122;2022-11-15T01:20:48;7.54;99.69
64499;SHT31;51087;55.718;21.122;2022-11-15T01:23:16;7.54;99.49
64499;SHT31;51087;55.718;21.122;2022-11-15T01:25:42;7.54;99.31
64499;SHT31;51087;55.718;21.122;2022-11-15T01:28:07;7.52;99.35
64499;SHT31;51087;55.718;21.122;2022-11-15T01:30:33;7.52;99.48
64499;SHT31;51087;55.718;21.122;2022-11-15T01:32:58;7.54;99.65
64499;SHT31;51087;55.718;21.122;2022-11-15T01:35:23;7.52;99.69
64499;SHT31;51087;55.718;21.122;2022-11-15T01:37:49;7.52;99.75
64499;SHT31;51087;55.718;21.122;2022-11-15T01:40:14;7.51;99.74
64499;SHT31;51087;55.718;21.122;2022-11-15T01:42:40;7.54;99.85
64499;SHT31;51087;55.718;21.122;2022-11-15T01:45:06;7.54;99.71
64499;SHT31;51087;55.718;21.122;2022-11-15T01:47:40;7.54;99.42
64499;SHT31;51087;55.718;21.122;2022-11-15T01:50:12;7.51;99.15
64499;SHT31;51087;55.718;21.122;2022-11-15T01:52:40;7.52;99.08
64499;SHT31;51087;55.718;21.122;2022-11-15T01:55:35;7.52;99.12
64499;SHT31;51087;55.718;21.122;2022-11-15T01:58:02;7.52;98.85
64499;SHT31;51087;55.718;21.122;2022-11-15T02:00:29;7.49;98.91
64499;SHT31;51087;55.718;21.122;2022-11-15T02:02:55;7.51;99.00
64499;SHT31;51087;55.718;21.122;2022-11-15T02:05:20;7.48;99.04
64499;SHT31;51087;55.718;21.122;2022-11-15T02:07:47;7.49;99.19
64499;SHT31;51087;55.718;21.122;2022-11-15T02:10:19;7.49;99.17
64499;SHT31;51087;55.718;21.122;2022-11-15T02:12:45;7.51;99.07
64499;SHT31;51087;55.718;21.122;2022-11-15T02:15:11;7.49;98.94
64499;SHT31;51087;55.718;21.122;2022-11-15T02:18:07;7.47;98.80
64499;SHT31;51087;55.718;21.122;2022-11-15T02:35:30;7.45;98.36
64499;SHT31;51087;55.718;21.122;2022-11-15T02:38:17;7.45;98.29
64499;SHT31;51087;55.718;21.122;2022-11-15T02:41:03;7.45;97.71
64499;SHT31;51087;55.718;21.122;2022-11-15T02:43:43;7.42;97.83
64499;SHT31;51087;55.718;21.122;2022-11-15T02:49:13;7.42;97.81
64499;SHT31;51087;55.718;21.122;2022-11-15T02:51:40;7.41;97.76
64499;SHT31;51087;55.718;21.122;2022-11-15T02:54:07;7.36;97.91
64499;SHT31;51087;55.718;21.122;2022-11-15T02:56:32;7.38;97.98
64499;SHT31;51087;55.718;21.122;2022-11-15T03:06:52;7.31;97.65
64499;SHT31;51087;55.718;21.122;2022-11-15T03:09:28;7.32;97.80
64499;SHT31;51087;55.718;21.122;2022-11-15T03:12:07;7.34;98.04
64499;SHT31;51087;55.718;21.122;2022-11-15T03:15:10;7.32;98.15
64499;SHT31;51087;55.718;21.122;2022-11-15T03:20:33;7.32;97.41
64499;SHT31;51087;55.718;21.122;2022-11-15T03:23:08;7.28;97.42
64499;SHT31;51087;55.718;21.122;2022-11-15T03:25:37;7.30;97.47
64499;SHT31;51087;55.718;21.122;2022-11-15T03:28:05;7.30;97.51
64499;SHT31;51087;55.718;21.122;2022-11-15T03:30:33;7.24;97.51
64499;SHT31;51087;55.718;21.122;2022-11-15T03:33:02;7.27;97.55
64499;SHT31;51087;55.718;21.122;2022-11-15T03:35:33;7.24;97.74
64499;SHT31;51087;55.718;21.122;2022-11-15T03:38:08;7.22;97.85
64499;SHT31;51087;55.718;21.122;2022-11-15T03:40:41;7.24;97.65
64499;SHT31;51087;55.718;21.122;2022-11-15T03:43:42;7.24;97.56
64499;SHT31;51087;55.718;21.122;2022-11-15T03:46:14;7.22;97.64
64499;SHT31;51087;55.718;21.122;2022-11-15T03:48:44;7.22;97.78
64499;SHT31;51087;55.718;21.122;2022-11-15T03:51:12;7.24;97.69
64499;SHT31;51087;55.718;21.122;2022-11-15T03:53:38;7.22;97.93
64499;SHT31;51087;55.718;21.122;2022-11-15T03:56:04;7.24;98.05
64499;SHT31;51087;55.718;21.122;2022-11-15T03:58:29;7.25;97.98
64499;SHT31;51087;55.718;21.122;2022-11-15T04:00:54;7.27;97.96
64499;SHT31;51087;55.718;21.122;2022-11-15T04:03:20;7.24;97.85
64499;SHT31;51087;55.718;21.122;2022-11-15T04:05:45;7.25;97.75
64499;SHT31;51087;55.718;21.122;2022-11-15T04:08:11;7.25;97.80
64499;SHT31;51087;55.718;21.122;2022-11-15T04:10:36;7.24;97.72
64499;SHT31;51087;55.718;21.122;2022-11-15T04:13:02;7.27;97.61
64499;SHT31;51087;55.718;21.122;2022-11-15T04:15:28;7.27;97.43
64499;SHT31;51087;55.718;21.122;2022-11-15T04:17:56;7.27;97.50
64499;SHT31;51087;55.718;21.122;2022-11-15T04:20:26;7.27;97.56
64499;SHT31;51087;55.718;21.122;2022-11-15T04:23:16;7.21;97.69
64499;SHT31;51087;55.718;21.122;2022-11-15T04:26:06;7.27;97.62
64499;SHT31;51087;55.718;21.122;2022-11-15T04:28:33;7.22;97.45
64499;SHT31;51087;55.718;21.122;2022-11-15T04:30:58;7.24;97.45
64499;SHT31;51087;55.718;21.122;2022-11-15T04:33:24;7.25;97.49
64499;SHT31;51087;55.718;21.122;2022-11-15T04:35:49;7.22;97.50
64499;SHT31;51087;55.718;21.122;2022-11-15T04:38:34;7.20;97.54
64499;SHT31;51087;55.718;21.122;2022-11-15T04:41:00;7.21;97.45
64499;SHT31;51087;55.718;21.122;2022-11-15T04:43:26;7.24;97.29
64499;SHT31;51087;55.718;21.122;2022-11-15T04:45:51;7.22;97.45
64499;SHT31;51087;55.718;21.122;2022-11-15T04:48:16;7.24;97.51
64499;SHT31;51087;55.718;21.122;2022-11-15T04:50:42;7.24;97.21
64499;SHT31;51087;55.718;21.122;2022-11-15T04:53:07;7.25;97.32
64499;SHT31;51087;55.718;21.122;2022-11-15T04:55:33;7.25;97.36
64499;SHT31;51087;55.718;21.122;2022-11-15T04:57:59;7.25;97.39
64499;SHT31;51087;55.718;21.122;2022-11-15T05:00:26;7.27;97.15
64499;SHT31;51087;55.718;21.122;2022-11-15T05:02:51;7.27;97.12
64499;SHT31;51087;55.718;21.122;2022-11-15T05:05:36;7.27;97.24
64499;SHT31;51087;55.718;21.122;2022-11-15T05:08:02;7.25;97.09
64499;SHT31;51087;55.718;21.122;2022-11-15T05:10:27;7.30;97.25
64499;SHT31;51087;55.718;21.122;2022-11-15T05:12:53;7.25;97.06
64499;SHT31;51087;55.718;21.122;2022-11-15T05:15:18;7.31;97.02
64499;SHT31;51087;55.718;21.122;2022-11-15T05:17:44;7.30;97.28
64499;SHT31;51087;55.718;21.122;2022-11-15T05:20:09;7.28;97.49
64499;SHT31;51087;55.718;21.122;2022-11-15T05:22:35;7.25;97.48
64499;SHT31;51087;55.718;21.122;2022-11-15T05:25:00;7.25;97.51
64499;SHT31;51087;55.718;21.122;2022-11-15T05:27:26;7.25;97.52
64499;SHT31;51087;55.718;21.122;2022-11-15T05:29:51;7.28;97.52
64499;SHT31;51087;55.718;21.122;2022-11-15T05:32:17;7.24;97.40
64499;SHT31;51087;55.718;21.122;2022-11-15T05:34:43;7.27;97.60
64499;SHT31;51087;55.718;21.122;2022-11-15T05:37:09;7.27;97.63
64499;SHT31;51087;55.718;21.122;2022-11-15T05:39:34;7.27;97.57
64499;SHT31;51087;55.718;21.122;2022-11-15T05:42:15;7.28;97.57
64499;SHT31;51087;55.718;21.122;2022-11-15T05:44:44;7.30;97.56
64499;SHT31;51087;55.718;21.122;2022-11-15T05:47:15;7.32;97.50
64499;SHT31;51087;55.718;21.122;2022-11-15T05:49:43;7.31;97.43
64499;SHT31;51087;55.718;21.122;2022-11-15T05:52:12;7.32;97.38
64499;SHT31;51087;55.718;21.122;2022-11-15T05:54:39;7.35;97.36
64499;SHT31;51087;55.718;21.122;2022-11-15T05:57:04;7.34;97.56
64499;SHT31;51087;55.718;21.122;2022-11-15T05:59:31;7.35;97.48
64499;SHT31;51087;55.718;21.122;2022-11-15T06:01:58;7.30;97.22
64499;SHT31;51087;55.718;21.122;2022-11-15T06:04:23;7.32;97.15
64499;SHT31;51087;55.718;21.122;2022-11-15T06:06:49;7.34;97.28
64499;SHT31;51087;55.718;21.122;2022-11-15T06:09:14;7.32;97.21
64499;SHT31;51087;55.718;21.122;2022-11-15T06:11:40;7.34;97.28
64499;SHT31;51087;55.718;21.122;2022-11-15T06:14:05;7.32;97.29
64499;SHT31;51087;55.718;21.122;2022-11-15T06:16:31;7.35;97.21
64499;SHT31;51087;55.718;21.122;2022-11-15T06:18:56;7.34;97.57
64499;SHT31;51087;55.718;21.122;2022-11-15T06:21:22;7.36;97.72
64499;SHT31;51087;55.718;21.122;2022-11-15T06:23:47;7.42;97.68
64499;SHT31;51087;55.718;21.122;2022-11-15T06:26:13;7.41;97.64
64499;SHT31;51087;55.718;21.122;2022-11-15T06:28:38;7.41;97.70
64499;SHT31;51087;55.718;21.122;2022-11-15T06:31:05;7.44;97.21
64499;SHT31;51087;55.718;21.122;2022-11-15T06:33:31;7.44;97.47
64499;SHT31;51087;55.718;21.122;2022-11-15T06:36:03;7.45;97.43
64499;SHT31;51087;55.718;21.122;2022-11-15T06:38:29;7.47;97.54
64499;SHT31;51087;55.718;21.122;2022-11-15T06:40:54;7.44;97.17
64499;SHT31;51087;55.718;21.122;2022-11-15T06:43:20;7.45;97.49
64499;SHT31;51087;55.718;21.122;2022-11-15T06:45:45;7.48;97.64
64499;SHT31;51087;55.718;21.122;2022-11-15T06:48:11;7.52;97.57
64499;SHT31;51087;55.718;21.122;2022-11-15T06:50:36;7.52;97.23
64499;SHT31;51087;55.718;21.122;2022-11-15T06:53:03;7.47;96.80
64499;SHT31;51087;55.718;21.122;2022-11-15T06:55:28;7.52;97.19
64499;SHT31;51087;55.718;21.122;2022-11-15T06:57:54;7.52;97.17
64499;SHT31;51087;55.718;21.122;2022-11-15T07:00:21;7.55;97.11
64499;SHT31;51087;55.718;21.122;2022-11-15T07:02:47;7.54;96.83
64499;SHT31;51087;55.718;21.122;2022-11-15T07:05:13;7.56;97.03
64499;SHT31;51087;55.718;21.122;2022-11-15T07:07:39;7.58;97.08
64499;SHT31;51087;55.718;21.122;2022-11-15T07:10:05;7.56;96.84
64499;SHT31;51087;55.718;21.122;2022-11-15T07:12:31;7.56;96.84
64499;SHT31;51087;55.718;21.122;2022-11-15T07:14:56;7.55;96.67
64499;SHT31;51087;55.718;21.122;2022-11-15T07:17:22;7.54;96.74
64499;SHT31;51087;55.718;21.122;2022-11-15T07:19:47;7.54;96.76
64499;SHT31;51087;55.718;21.122;2022-11-15T07:22:13;7.55;96.67
64499;SHT31;51087;55.718;21.122;2022-11-15T07:24:38;7.55;96.65
64499;SHT31;51087;55.718;21.122;2022-11-15T07:27:03;7.56;96.82
64499;SHT31;51087;55.718;21.122;2022-11-15T07:29:29;7.54;96.87
64499;SHT31;51087;55.718;21.122;2022-11-15T07:31:54;7.54;96.93
64499;SHT31;51087;55.718;21.122;2022-11-15T07:34:20;7.54;97.06
64499;SHT31;51087;55.718;21.122;2022-11-15T07:36:45;7.55;96.90
64499;SHT31;51087;55.718;21.122;2022-11-15T07:39:11;7.56;96.97
64499;SHT31;51087;55.718;21.122;2022-11-15T07:41:37;7.59;97.09
64499;SHT31;51087;55.718;21.122;2022-11-15T07:44:04;7.58;97.10
64499;SHT31;51087;55.718;21.122;2022-11-15T07:46:30;7.58;97.08
64499;SHT31;51087;55.718;21.122;2022-11-15T07:48:56;7.56;97.20
64499;SHT31;51087;55.718;21.122;2022-11-15T07:51:21;7.56;97.31
64499;SHT31;51087;55.718;21.122;2022-11-15T07:53:47;7.59;97.59
64499;SHT31;51087;55.718;21.122;2022-11-15T07:56:12;7.63;97.66
64499;SHT31;51087;55.718;21.122;2022-11-15T07:58:38;7.65;97.53
64499;SHT31;51087;55.718;21.122;2022-11-15T08:01:04;7.66;97.14
64499;SHT31;51087;55.718;21.122;2022-11-15T08:03:30;7.65;96.92
64499;SHT31;51087;55.718;21.122;2022-11-15T08:05:55;7.59;97.44
64499;SHT31;51087;55.718;21.122;2022-11-15T08:08:21;7.61;97.69
64499;SHT31;51087;55.718;21.122;2022-11-15T08:10:46;7.61;97.51
64499;SHT31;51087;55.718;21.122;2022-11-15T08:13:12;7.62;97.42
64499;SHT31;51087;55.718;21.122;2022-11-15T08:15:38;7.62;97.81
64499;SHT31;51087;55.718;21.122;2022-11-15T08:18:06;7.66;97.76
64499;SHT31;51087;55.718;21.122;2022-11-15T08:20:33;7.61;97.72
64499;SHT31;51087;55.718;21.122;2022-11-15T08:23:01;7.61;97.62
64499;SHT31;51087;55.718;21.122;2022-11-15T08:25:28;7.55;98.01
64499;SHT31;51087;55.718;21.122;2022-11-15T08:27:56;7.51;98.23
64499;SHT31;51087;55.718;21.122;2022-11-15T08:30:22;7.54;98.29
64499;SHT31;51087;55.718;21.122;2022-11-15T08:32:48;7.51;98.47
64499;SHT31;51087;55.718;21.122;2022-11-15T08:35:14;7.56;98.38
64499;SHT31;51087;55.718;21.122;2022-11-15T08:37:39;7.58;98.20
64499;SHT31;51087;55.718;21.122;2022-11-15T08:40:05;7.51;98.48
64499;SHT31;51087;55.718;21.122;2022-11-15T08:42:31;7.56;98.45
64499;SHT31;51087;55.718;21.122;2022-11-15T08:44:57;7.54;98.69
64499;SHT31;51087;55.718;21.122;2022-11-15T08:47:22;7.54;98.72
64499;SHT31;51087;55.718;21.122;2022-11-15T08:49:48;7.51;98.71
64499;SHT31;51087;55.718;21.122;2022-11-15T08:52:14;7.51;98.73
64499;SHT31;51087;55.718;21.122;2022-11-15T08:54:39;7.39;99.56
64499;SHT31;51087;55.718;21.122;2022-11-15T08:57:06;7.30;99.92
64499;SHT31;51087;55.718;21.122;2022-11-15T08:59:32;7.34;99.99
64499;SHT31;51087;55.718;21.122;2022-11-15T09:01:57;7.35;99.99
64499;SHT31;51087;55.718;21.122;2022-11-15T09:04:22;7.34;99.91
64499;SHT31;51087;55.718;21.122;2022-11-15T09:06:48;7.38;99.99
64499;SHT31;51087;55.718;21.122;2022-11-15T09:09:14;7.39;99.99
64499;SHT31;51087;55.718;21.122;2022-11-15T09:11:39;7.42;99.99
64499;SHT31;51087;55.718;21.122;2022-11-15T09:14:05;7.49;99.99
64499;SHT31;51087;55.718;21.122;2022-11-15T09:16:31;7.51;99.99
64499;SHT31;51087;55.718;21.122;2022-11-15T09:18:56;7.61;99.99
64499;SHT31;51087;55.718;21.122;2022-11-15T09:21:22;7.68;99.99
64499;SHT31;51087;55.718;21.122;2022-11-15T09:23:50;7.76;99.59
64499;SHT31;51087;55.718;21.122;2022-11-15T09:26:17;7.80;98.84
64499;SHT31;51087;55.718;21.122;2022-11-15T09:28:42;7.89;98.88
64499;SHT31;51087;55.718;21.122;2022-11-15T09:31:08;7.94;98.82
64499;SHT31;51087;55.718;21.122;2022-11-15T09:33:34;8.00;98.57
64499;SHT31;51087;55.718;21.122;2022-11-15T09:36:02;7.97;98.53
64499;SHT31;51087;55.718;21.122;2022-11-15T09:38:28;8.00;98.44
64499;SHT31;51087;55.718;21.122;2022-11-15T09:41:15;8.03;98.24
64499;SHT31;51087;55.718;21.122;2022-11-15T09:49:25;8.13;97.76
64499;SHT31;51087;55.718;21.122;2022-11-15T09:51:53;8.14;97.83
64499;SHT31;51087;55.718;21.122;2022-11-15T09:57:09;8.17;97.53
64499;SHT31;51087;55.718;21.122;2022-11-15T10:05:11;8.24;97.36
64499;SHT31;51087;55.718;21.122;2022-11-15T10:07:48;8.24;97.08
64499;SHT31;51087;55.718;21.122;2022-11-15T10:10:46;8.23;97.00
64499;SHT31;51087;55.718;21.122;2022-11-15T10:13:33;8.21;97.06
64499;SHT31;51087;55.718;21.122;2022-11-15T10:19:07;8.28;97.03
64499;SHT31;51087;55.718;21.122;2022-11-15T10:24:44;8.33;96.97
64499;SHT31;51087;55.718;21.122;2022-11-15T10:27:15;8.34;96.73
64499;SHT31;51087;55.718;21.122;2022-11-15T10:29:48;8.33;96.80
64499;SHT31;51087;55.718;21.122;2022-11-15T10:32:20;8.48;96.68
64499;SHT31;51087;55.718;21.122;2022-11-15T10:34:47;8.59;96.34
64499;SHT31;51087;55.718;21.122;2022-11-15T10:37:13;8.72;96.40
64499;SHT31;51087;55.718;21.122;2022-11-15T10:39:38;8.75;95.98
64499;SHT31;51087;55.718;21.122;2022-11-15T10:42:26;8.80;96.01
64499;SHT31;51087;55.718;21.122;2022-11-15T10:44:52;8.87;95.59
64499;SHT31;51087;55.718;21.122;2022-11-15T10:47:29;8.96;95.17
64499;SHT31;51087;55.718;21.122;2022-11-15T10:52:57;9.45;94.28
64499;SHT31;51087;55.718;21.122;2022-11-15T10:55:29;9.49;92.42
64499;SHT31;51087;55.718;21.122;2022-11-15T10:58:09;9.79;92.86
64499;SHT31;51087;55.718;21.122;2022-11-15T11:00:45;9.87;92.08
64499;SHT31;51087;55.718;21.122;2022-11-15T11:03:30;9.97;91.57
64499;SHT31;51087;55.718;21.122;2022-11-15T11:08:31;10.24;90.24
64499;SHT31;51087;55.718;21.122;2022-11-15T11:10:59;10.24;89.47
64499;SHT31;51087;55.718;21.122;2022-11-15T11:13:36;10.41;89.08
64499;SHT31;51087;55.718;21.122;2022-11-15T11:24:24;11.14;86.27
64499;SHT31;51087;55.718;21.122;2022-11-15T11:27:07;11.33;84.60
64499;SHT31;51087;55.718;21.122;2022-11-15T11:40:30;11.67;80.94
64499;SHT31;51087;55.718;21.122;2022-11-15T11:51:19;10.95;84.84
64499;SHT31;51087;55.718;21.122;2022-11-15T11:53:55;10.71;85.17
64499;SHT31;51087;55.718;21.122;2022-11-15T11:56:28;10.57;86.06
64499;SHT31;51087;55.718;21.122;2022-11-15T11:58:59;10.69;85.88
64499;SHT31;51087;55.718;21.122;2022-11-15T12:01:31;10.69;86.08
64499;SHT31;51087;55.718;21.122;2022-11-15T12:04:30;10.55;86.10
64499;SHT31;51087;55.718;21.122;2022-11-15T12:07:25;10.61;86.06
64499;SHT31;51087;55.718;21.122;2022-11-15T12:10:11;10.65;85.43
64499;SHT31;51087;55.718;21.122;2022-11-15T12:18:12;10.47;85.82
64499;SHT31;51087;55.718;21.122;2022-11-15T12:20:41;10.34;85.71
64499;SHT31;51087;55.718;21.122;2022-11-15T12:23:19;10.40;86.04
64499;SHT31;51087;55.718;21.122;2022-11-15T12:26:06;10.52;85.60
64499;SHT31;51087;55.718;21.122;2022-11-15T12:28:54;10.49;85.56
64499;SHT31;51087;55.718;21.122;2022-11-15T12:34:02;10.76;85.18
64499;SHT31;51087;55.718;21.122;2022-11-15T12:36:40;10.78;83.24
64499;SHT31;51087;55.718;21.122;2022-11-15T12:39:14;10.72;82.98
64499;SHT31;51087;55.718;21.122;2022-11-15T12:41:41;10.64;83.60
64499;SHT31;51087;55.718;21.122;2022-11-15T12:44:13;10.55;83.39
64499;SHT31;51087;55.718;21.122;2022-11-15T12:59:51;10.49;82.98
64499;SHT31;51087;55.718;21.122;2022-11-15T13:02:39;10.40;83.18
64499;SHT31;51087;55.718;21.122;2022-11-15T13:17:43;10.21;84.52
64499;SHT31;51087;55.718;21.122;2022-11-15T13:20:19;10.18;84.80
64499;SHT31;51087;55.718;21.122;2022-11-15T13:31:34;9.72;88.98
64499;SHT31;51087;55.718;21.122;2022-11-15T13:34:13;9.68;89.86
64499;SHT31;51087;55.718;21.122;2022-11-15T13:36:39;9.62;90.59
64499;SHT31;51087;55.718;21.122;2022-11-15T13:39:14;9.52;91.37
64499;SHT31;51087;55.718;21.122;2022-11-15T13:41:50;9.41;91.97
64499;SHT31;51087;55.718;21.122;2022-11-15T13:44:27;9.38;92.59
64499;SHT31;51087;55.718;21.122;2022-11-15T13:49:32;9.23;94.19
64499;SHT31;51087;55.718;21.122;2022-11-15T13:52:00;9.10;94.96
64499;SHT31;51087;55.718;21.122;2022-11-15T13:54:34;9.09;95.00
64499;SHT31;51087;55.718;21.122;2022-11-15T13:57:12;9.06;95.26
64499;SHT31;51087;55.718;21.122;2022-11-15T14:00:21;8.96;96.03
64499;SHT31;51087;55.718;21.122;2022-11-15T14:02:47;8.91;96.45
64499;SHT31;51087;55.718;21.122;2022-11-15T14:05:17;8.93;96.27
64499;SHT31;51087;55.718;21.122;2022-11-15T14:12:51;8.82;96.78
64499;SHT31;51087;55.718;21.122;2022-11-15T14:17:50;8.68;97.06
64499;SHT31;51087;55.718;21.122;2022-11-15T14:22:58;8.58;97.81
64499;SHT31;51087;55.718;21.122;2022-11-15T14:25:25;8.55;97.76
64499;SHT31;51087;55.718;21.122;2022-11-15T14:30:32;8.51;98.13
64499;SHT31;51087;55.718;21.122;2022-11-15T14:32:58;8.46;98.40
64499;SHT31;51087;55.718;21.122;2022-11-15T14:35:24;8.42;98.69
64499;SHT31;51087;55.718;21.122;2022-11-15T14:37:49;8.44;98.54
64499;SHT31;51087;55.718;21.122;2022-11-15T14:40:21;8.46;98.41
64499;SHT31;51087;55.718;21.122;2022-11-15T14:42:47;8.42;98.59
64499;SHT31;51087;55.718;21.122;2022-11-15T14:45:21;8.38;98.76
64499;SHT31;51087;55.718;21.122;2022-11-15T14:47:47;8.41;98.67
64499;SHT31;51087;55.718;21.122;2022-11-15T14:50:18;8.35;98.74
64499;SHT31;51087;55.718;21.122;2022-11-15T14:52:44;8.33;98.85
64499;SHT31;51087;55.718;21.122;2022-11-15T14:55:23;8.27;98.98
64499;SHT31;51087;55.718;21.122;2022-11-15T14:57:49;8.24;99.14
64499;SHT31;51087;55.718;21.122;2022-11-15T15:00:15;8.23;99.22
64499;SHT31;51087;55.718;21.122;2022-11-15T15:02:42;8.21;99.22
64499;SHT31;51087;55.718;21.122;2022-11-15T15:07:51;8.24;99.02
64499;SHT31;51087;55.718;21.122;2022-11-15T15:10:19;8.24;98.94
64499;SHT31;51087;55.718;21.122;2022-11-15T15:12:45;8.25;98.83
64499;SHT31;51087;55.718;21.122;2022-11-15T15:15:23;8.30;98.57
64499;SHT31;51087;55.718;21.122;2022-11-15T15:17:49;8.33;98.18
64499;SHT31;51087;55.718;21.122;2022-11-15T15:20:15;8.27;98.35
64499;SHT31;51087;55.718;21.122;2022-11-15T15:22:40;8.27;98.44
64499;SHT31;51087;55.718;21.122;2022-11-15T15:27:45;8.21;98.67
64499;SHT31;51087;55.718;21.122;2022-11-15T15:30:11;8.20;98.78
64499;SHT31;51087;55.718;21.122;2022-11-15T15:32:36;8.18;98.71
64499;SHT31;51087;55.718;21.122;2022-11-15T15:35:02;8.24;98.70
64499;SHT31;51087;55.718;21.122;2022-11-15T15:37:28;8.20;98.46
64499;SHT31;51087;55.718;21.122;2022-11-15T15:39:56;8.17;98.61
64499;SHT31;51087;55.718;21.122;2022-11-15T15:42:22;8.18;98.54
64499;SHT31;51087;55.718;21.122;2022-11-15T15:44:49;8.17;98.63
64499;SHT31;51087;55.718;21.122;2022-11-15T15:47:19;8.24;98.53
64499;SHT31;51087;55.718;21.122;2022-11-15T15:49:46;8.23;98.17
64499;SHT31;51087;55.718;21.122;2022-11-15T15:52:11;8.18;98.33
64499;SHT31;51087;55.718;21.122;2022-11-15T15:54:37;8.18;98.45
64499;SHT31;51087;55.718;21.122;2022-11-15T15:57:03;8.17;98.52
64499;SHT31;51087;55.718;21.122;2022-11-15T15:59:29;8.14;98.54
64499;SHT31;51087;55.718;21.122;2022-11-15T16:01:54;8.13;98.66
64499;SHT31;51087;55.718;21.122;2022-11-15T16:04:20;8.13;98.01
64499;SHT31;51087;55.718;21.122;2022-11-15T16:06:45;8.13;97.65
64499;SHT31;51087;55.718;21.122;2022-11-15T16:09:13;8.13;97.17
64499;SHT31;51087;55.718;21.122;2022-11-15T16:11:40;8.17;96.82
64499;SHT31;51087;55.718;21.122;2022-11-15T16:14:08;8.17;96.98
64499;SHT31;51087;55.718;21.122;2022-11-15T16:16:34;8.15;97.25
64499;SHT31;51087;55.718;21.122;2022-11-15T16:19:00;8.15;97.08
64499;SHT31;51087;55.718;21.122;2022-11-15T16:21:26;8.15;96.86
64499;SHT31;51087;55.718;21.122;2022-11-15T16:23:52;8.18;96.94
64499;SHT31;51087;55.718;21.122;2022-11-15T16:26:28;8.14;97.20
64499;SHT31;51087;55.718;21.122;2022-11-15T16:28:55;8.23;97.06
64499;SHT31;51087;55.718;21.122;2022-11-15T16:31:20;8.24;96.68
64499;SHT31;51087;55.718;21.122;2022-11-15T16:33:48;8.17;96.37
64499;SHT31;51087;55.718;21.122;2022-11-15T16:36:25;8.24;95.51
64499;SHT31;51087;55.718;21.122;2022-11-15T16:38:51;8.20;94.37
64499;SHT31;51087;55.718;21.122;2022-11-15T16:41:17;8.17;93.13
64499;SHT31;51087;55.718;21.122;2022-11-15T16:43:47;8.17;93.02
64499;SHT31;51087;55.718;21.122;2022-11-15T16:46:23;8.17;92.24
64499;SHT31;51087;55.718;21.122;2022-11-15T16:48:49;8.18;91.82
64499;SHT31;51087;55.718;21.122;2022-11-15T16:51:15;8.17;91.98
64499;SHT31;51087;55.718;21.122;2022-11-15T16:53:42;8.20;91.89
64499;SHT31;51087;55.718;21.122;2022-11-15T16:56:26;8.20;91.81
64499;SHT31;51087;55.718;21.122;2022-11-15T16:58:53;8.21;92.10
64499;SHT31;51087;55.718;21.122;2022-11-15T17:01:24;8.23;92.15
64499;SHT31;51087;55.718;21.122;2022-11-15T17:03:50;8.24;92.39
64499;SHT31;51087;55.718;21.122;2022-11-15T17:06:16;8.23;92.86
64499;SHT31;51087;55.718;21.122;2022-11-15T17:08:43;8.27;93.16
64499;SHT31;51087;55.718;21.122;2022-11-15T17:11:10;8.21;93.80
64499;SHT31;51087;55.718;21.122;2022-11-15T17:13:37;8.21;94.16
64499;SHT31;51087;55.718;21.122;2022-11-15T17:16:08;8.24;93.87
64499;SHT31;51087;55.718;21.122;2022-11-15T17:18:35;8.21;93.82
64499;SHT31;51087;55.718;21.122;2022-11-15T17:21:06;8.18;93.49
64499;SHT31;51087;55.718;21.122;2022-11-15T17:23:32;8.13;92.80
64499;SHT31;51087;55.718;21.122;2022-11-15T17:26:01;8.11;91.77
64499;SHT31;51087;55.718;21.122;2022-11-15T17:28:32;8.07;90.61
64499;SHT31;51087;55.718;21.122;2022-11-15T17:30:58;8.10;90.16
64499;SHT31;51087;55.718;21.122;2022-11-15T17:33:24;8.03;89.32
64499;SHT31;51087;55.718;21.122;2022-11-15T17:36:02;8.03;88.93
64499;SHT31;51087;55.718;21.122;2022-11-15T17:38:28;8.03;89.09
64499;SHT31;51087;55.718;21.122;2022-11-15T17:43:30;7.83;89.41
64499;SHT31;51087;55.718;21.122;2022-11-15T17:45:55;7.87;89.72
64499;SHT31;51087;55.718;21.122;2022-11-15T17:48:21;7.73;89.58
64499;SHT31;51087;55.718;21.122;2022-11-15T17:51:04;7.58;88.35
64499;SHT31;51087;55.718;21.122;2022-11-15T17:53:35;7.35;88.46
64499;SHT31;51087;55.718;21.122;2022-11-15T17:56:05;7.28;89.17
64499;SHT31;51087;55.718;21.122;2022-11-15T17:58:32;7.25;89.57
64499;SHT31;51087;55.718;21.122;2022-11-15T18:01:08;7.11;89.77
64499;SHT31;51087;55.718;21.122;2022-11-15T18:03:37;6.97;90.06
64499;SHT31;51087;55.718;21.122;2022-11-15T18:06:04;7.00;89.62
64499;SHT31;51087;55.718;21.122;2022-11-15T18:08:30;6.92;88.78